Flight Track Log - Related Links

Times and Time Zones

All times are in EDT time to prevent confusion due to time zone crossing. See the PN6225 flight status page for this flight to view local times or setup timezone preferences in your user account.

Time Position Orientation Groundspeed Altitude Reporting Facility
EDT Latitude Longitude Course Direction KTS MPH feet Rate Location/Type
Fri 09:25:00 PM 30.1795 106.2231 322° Northwest  Level Estimated
Fri 09:26:00 PM 30.2306 106.1764 322° Northwest  Level Estimated
Fri 09:27:00 PM 30.2816 106.1297 322° Northwest  Level Estimated
Fri 09:28:00 PM 30.3326 106.0829 322° Northwest  Level Estimated
Fri 09:29:00 PM 30.3836 106.0361 322° Northwest  Level Estimated
Fri 09:30:00 PM 30.4346 105.9892 322° Northwest  Level Estimated
Fri 09:31:00 PM 30.4855 105.9423 322° Northwest  Level Estimated
Fri 09:32:00 PM 30.5365 105.8953 322° Northwest  Level Estimated
Fri 09:33:00 PM 30.5874 105.8483 322° Northwest  Level Estimated
Fri 09:34:00 PM 30.6383 105.8012 322° Northwest  Level Estimated
Fri 09:35:00 PM 30.6892 105.7541 321° Northwest  Level Estimated
Fri 09:36:00 PM 30.7401 105.7070 321° Northwest  Level Estimated
Fri 09:37:00 PM 30.7909 105.6597 321° Northwest  Level Estimated
Fri 09:38:00 PM 30.8418 105.6125 321° Northwest  Level Estimated
Fri 09:39:00 PM 30.8926 105.5651 321° Northwest  Level Estimated
Fri 09:40:00 PM 30.9434 105.5178 321° Northwest  Level Estimated
Fri 09:41:00 PM 30.9942 105.4704 321° Northwest  Level Estimated
Fri 09:42:00 PM 31.0450 105.4229 321° Northwest  Level Estimated
Fri 09:43:00 PM 31.0957 105.3754 321° Northwest  Level Estimated
Fri 09:44:00 PM 31.1465 105.3278 321° Northwest  Level Estimated
Fri 09:45:00 PM 31.1972 105.2802 321° Northwest  Level Estimated
Fri 09:46:00 PM 31.2479 105.2325 321° Northwest  Level Estimated
Fri 09:47:00 PM 31.2986 105.1848 321° Northwest  Level Estimated
Fri 09:48:00 PM 31.3493 105.1370 321° Northwest  Level Estimated
Fri 09:49:00 PM 31.3999 105.0892 321° Northwest  Level Estimated
Fri 09:50:00 PM 31.4505 105.0413 321° Northwest  Level Estimated
Fri 09:51:00 PM 31.5012 104.9934 321° Northwest  Level Estimated
Fri 09:52:00 PM 31.5518 104.9454 321° Northwest  Level Estimated
Fri 09:53:00 PM 31.6023 104.8974 321° Northwest  Level Estimated
Fri 09:54:00 PM 31.6529 104.8493 321° Northwest  Level Estimated
Fri 09:55:00 PM 31.7034 104.8012 321° Northwest  Level Estimated
Fri 09:56:00 PM 31.7540 104.7530 321° Northwest  Level Estimated
Fri 09:57:00 PM 31.8045 104.7047 321° Northwest  Level Estimated
Fri 09:58:00 PM 31.8550 104.6564 321° Northwest  Level Estimated
Fri 09:59:00 PM 31.9054 104.6081 321° Northwest  Level Estimated
Fri 10:00:00 PM 31.9559 104.5597 321° Northwest  Level Estimated
Fri 10:01:00 PM 32.0063 104.5112 321° Northwest  Level Estimated
Fri 10:02:00 PM 32.0567 104.4627 321° Northwest  Level Estimated
Fri 10:03:00 PM 32.1071 104.4142 321° Northwest  Level Estimated
Fri 10:04:00 PM 32.1575 104.3656 321° Northwest  Level Estimated
Fri 10:05:00 PM 32.2079 104.3169 321° Northwest  Level Estimated
Fri 10:06:00 PM 32.2582 104.2682 321° Northwest  Level Estimated
Fri 10:07:00 PM 32.3085 104.2194 321° Northwest  Level Estimated
Fri 10:08:00 PM 32.3588 104.1706 321° Northwest  Level Estimated
Fri 10:09:00 PM 32.4091 104.1217 321° Northwest  Level Estimated
Fri 10:10:00 PM 32.4594 104.0727 321° Northwest  Level Estimated
Fri 10:11:00 PM 32.5096 104.0237 321° Northwest  Level Estimated
Fri 10:12:00 PM 32.5599 103.9747 321° Northwest  Level Estimated
Fri 10:13:00 PM 32.6101 103.9256 321° Northwest  Level Estimated
Fri 10:14:00 PM 32.6603 103.8764 320° Northwest  Level Estimated
Fri 10:15:00 PM 32.7104 103.8272 320° Northwest  Level Estimated
Fri 10:16:00 PM 32.7606 103.7779 320° Northwest  Level Estimated
Fri 10:17:00 PM 32.8107 103.7286 320° Northwest  Level Estimated
Fri 10:18:00 PM 32.8570 103.6830 320° Northwest  Level Estimated
Fri 10:19:00 PM 32.8570 103.6830 North  Level Estimated
Fri 10:20:00 PM 32.8570 103.6830 North  Level Estimated
Fri 10:21:00 PM 32.8570 103.6830 North  Level Estimated
Fri 10:22:00 PM 32.8570 103.6830 North  Level Estimated
Fri 10:23:00 PM 32.8570 103.6830 North  Level Estimated
Fri 10:24:00 PM 32.8570 103.6830 North  Level Estimated
Fri 10:25:00 PM 32.8570 103.6830 North  Level Estimated
Fri 10:26:00 PM 32.8570 103.6830 North  Level Estimated
Fri 10:27:00 PM 32.8570 103.6830 North  Level Estimated
Fri 10:28:00 PM 32.8570 103.6830 North  Level Estimated
Fri 10:29:00 PM 32.8570 103.6830 North  Level Estimated
Fri 10:30:00 PM 32.8570 103.6830 North  Level Estimated
Fri 10:31:00 PM 32.8570 103.6830 North  Level Estimated
Fri 10:32:00 PM 32.8570 103.6830 North  Level Estimated
Fri 10:33:00 PM 32.8570 103.6830 North  Level Estimated
Fri 10:34:00 PM 32.8570 103.6830 North  Level Estimated

Login

Don't have an account? Register now (free) for customized features, flight alerts, and more!